sensor_id;sensor_type;location;lat;lon;timestamp;P1;durP1;ratioP1;P2;durP2;ratioP2
22026;SDS011;11177;50.966;10.070;2024-01-15T00:01:15;29.55;;;12.95;;
22026;SDS011;11177;50.966;10.070;2024-01-15T00:03:43;25.73;;;11.85;;
22026;SDS011;11177;50.966;10.070;2024-01-15T00:06:13;26.27;;;12.27;;
22026;SDS011;11177;50.966;10.070;2024-01-15T00:08:40;26.00;;;12.52;;
22026;SDS011;11177;50.966;10.070;2024-01-15T00:11:07;27.55;;;12.98;;
22026;SDS011;11177;50.966;10.070;2024-01-15T00:13:34;26.95;;;12.45;;
22026;SDS011;11177;50.966;10.070;2024-01-15T00:16:01;24.40;;;12.27;;
22026;SDS011;11177;50.966;10.070;2024-01-15T00:18:28;26.48;;;13.02;;
22026;SDS011;11177;50.966;10.070;2024-01-15T00:20:55;24.90;;;12.10;;
22026;SDS011;11177;50.966;10.070;2024-01-15T00:23:22;25.23;;;11.65;;
22026;SDS011;11177;50.966;10.070;2024-01-15T00:25:53;28.58;;;12.45;;
22026;SDS011;11177;50.966;10.070;2024-01-15T00:28:20;28.58;;;12.50;;
22026;SDS011;11177;50.966;10.070;2024-01-15T00:30:47;29.60;;;12.70;;
22026;SDS011;11177;50.966;10.070;2024-01-15T00:33:14;28.08;;;12.93;;
22026;SDS011;11177;50.966;10.070;2024-01-15T00:35:41;24.13;;;11.50;;
22026;SDS011;11177;50.966;10.070;2024-01-15T00:38:09;24.27;;;11.55;;
22026;SDS011;11177;50.966;10.070;2024-01-15T00:40:36;28.52;;;11.80;;
22026;SDS011;11177;50.966;10.070;2024-01-15T00:43:04;24.63;;;11.27;;
22026;SDS011;11177;50.966;10.070;2024-01-15T00:45:31;23.60;;;11.15;;
22026;SDS011;11177;50.966;10.070;2024-01-15T00:47:58;24.30;;;10.13;;
22026;SDS011;11177;50.966;10.070;2024-01-15T00:50:27;20.65;;;9.68;;
22026;SDS011;11177;50.966;10.070;2024-01-15T00:52:55;25.48;;;10.80;;
22026;SDS011;11177;50.966;10.070;2024-01-15T00:55:22;21.30;;;9.75;;
22026;SDS011;11177;50.966;10.070;2024-01-15T00:57:49;21.83;;;9.95;;
22026;SDS011;11177;50.966;10.070;2024-01-15T01:00:16;21.15;;;10.00;;
22026;SDS011;11177;50.966;10.070;2024-01-15T01:02:44;21.50;;;10.23;;
22026;SDS011;11177;50.966;10.070;2024-01-15T01:05:11;19.15;;;9.57;;
22026;SDS011;11177;50.966;10.070;2024-01-15T01:07:38;20.90;;;10.63;;
22026;SDS011;11177;50.966;10.070;2024-01-15T01:10:05;20.95;;;10.02;;
22026;SDS011;11177;50.966;10.070;2024-01-15T01:12:33;20.00;;;9.48;;
22026;SDS011;11177;50.966;10.070;2024-01-15T01:15:00;20.50;;;9.20;;
22026;SDS011;11177;50.966;10.070;2024-01-15T01:17:28;21.85;;;9.95;;
22026;SDS011;11177;50.966;10.070;2024-01-15T01:19:55;20.90;;;9.73;;
22026;SDS011;11177;50.966;10.070;2024-01-15T01:22:22;19.55;;;9.80;;
22026;SDS011;11177;50.966;10.070;2024-01-15T01:24:49;18.98;;;9.63;;
22026;SDS011;11177;50.966;10.070;2024-01-15T01:27:16;18.88;;;8.77;;
22026;SDS011;11177;50.966;10.070;2024-01-15T01:29:43;19.98;;;9.10;;
22026;SDS011;11177;50.966;10.070;2024-01-15T01:32:10;19.20;;;8.93;;
22026;SDS011;11177;50.966;10.070;2024-01-15T01:34:40;18.38;;;8.70;;
22026;SDS011;11177;50.966;10.070;2024-01-15T01:37:10;18.63;;;9.40;;
22026;SDS011;11177;50.966;10.070;2024-01-15T01:39:41;21.50;;;8.73;;
22026;SDS011;11177;50.966;10.070;2024-01-15T01:42:09;19.63;;;8.93;;
22026;SDS011;11177;50.966;10.070;2024-01-15T01:44:35;18.73;;;8.95;;
22026;SDS011;11177;50.966;10.070;2024-01-15T01:47:03;18.85;;;8.88;;
22026;SDS011;11177;50.966;10.070;2024-01-15T01:49:30;20.17;;;9.15;;
22026;SDS011;11177;50.966;10.070;2024-01-15T01:52:00;18.90;;;8.90;;
22026;SDS011;11177;50.966;10.070;2024-01-15T01:54:29;18.45;;;8.15;;
22026;SDS011;11177;50.966;10.070;2024-01-15T01:56:58;19.55;;;8.45;;
22026;SDS011;11177;50.966;10.070;2024-01-15T01:59:26;18.52;;;8.30;;
22026;SDS011;11177;50.966;10.070;2024-01-15T02:01:56;17.92;;;8.45;;
22026;SDS011;11177;50.966;10.070;2024-01-15T02:04:24;18.80;;;8.48;;
22026;SDS011;11177;50.966;10.070;2024-01-15T02:06:52;21.88;;;9.23;;
22026;SDS011;11177;50.966;10.070;2024-01-15T02:09:19;13.07;;;6.90;;
22026;SDS011;11177;50.966;10.070;2024-01-15T02:11:47;16.60;;;8.02;;
22026;SDS011;11177;50.966;10.070;2024-01-15T02:14:14;18.98;;;8.82;;
22026;SDS011;11177;50.966;10.070;2024-01-15T02:16:41;19.15;;;8.18;;
22026;SDS011;11177;50.966;10.070;2024-01-15T02:19:14;18.42;;;8.68;;
22026;SDS011;11177;50.966;10.070;2024-01-15T02:21:42;18.80;;;9.15;;
22026;SDS011;11177;50.966;10.070;2024-01-15T02:24:10;18.08;;;8.00;;
22026;SDS011;11177;50.966;10.070;2024-01-15T02:26:37;17.70;;;8.50;;
22026;SDS011;11177;50.966;10.070;2024-01-15T02:29:06;17.38;;;8.02;;
22026;SDS011;11177;50.966;10.070;2024-01-15T02:31:35;19.65;;;8.23;;
22026;SDS011;11177;50.966;10.070;2024-01-15T02:34:03;17.25;;;8.63;;
22026;SDS011;11177;50.966;10.070;2024-01-15T02:36:31;21.25;;;9.00;;
22026;SDS011;11177;50.966;10.070;2024-01-15T02:38:58;16.08;;;7.75;;
22026;SDS011;11177;50.966;10.070;2024-01-15T02:41:25;18.20;;;8.38;;
22026;SDS011;11177;50.966;10.070;2024-01-15T02:43:52;15.48;;;7.68;;
22026;SDS011;11177;50.966;10.070;2024-01-15T02:46:19;18.42;;;8.48;;
22026;SDS011;11177;50.966;10.070;2024-01-15T02:48:46;15.75;;;8.15;;
22026;SDS011;11177;50.966;10.070;2024-01-15T02:51:14;17.48;;;8.25;;
22026;SDS011;11177;50.966;10.070;2024-01-15T02:53:41;15.50;;;7.75;;
22026;SDS011;11177;50.966;10.070;2024-01-15T02:56:08;15.25;;;7.70;;
22026;SDS011;11177;50.966;10.070;2024-01-15T02:58:35;18.10;;;8.55;;
22026;SDS011;11177;50.966;10.070;2024-01-15T03:01:02;16.52;;;7.63;;
22026;SDS011;11177;50.966;10.070;2024-01-15T03:03:30;16.13;;;8.20;;
22026;SDS011;11177;50.966;10.070;2024-01-15T03:05:57;15.00;;;7.35;;
22026;SDS011;11177;50.966;10.070;2024-01-15T03:08:25;14.45;;;7.55;;
22026;SDS011;11177;50.966;10.070;2024-01-15T03:10:52;16.13;;;7.97;;
22026;SDS011;11177;50.966;10.070;2024-01-15T03:13:22;15.35;;;7.53;;
22026;SDS011;11177;50.966;10.070;2024-01-15T03:15:49;17.77;;;8.90;;
22026;SDS011;11177;50.966;10.070;2024-01-15T03:18:16;18.27;;;8.05;;
22026;SDS011;11177;50.966;10.070;2024-01-15T03:20:44;16.05;;;7.68;;
22026;SDS011;11177;50.966;10.070;2024-01-15T03:23:11;16.45;;;8.30;;
22026;SDS011;11177;50.966;10.070;2024-01-15T03:25:37;15.65;;;8.10;;
22026;SDS011;11177;50.966;10.070;2024-01-15T03:28:04;16.70;;;7.53;;
22026;SDS011;11177;50.966;10.070;2024-01-15T03:30:31;16.77;;;7.60;;
22026;SDS011;11177;50.966;10.070;2024-01-15T03:32:59;16.77;;;8.18;;
22026;SDS011;11177;50.966;10.070;2024-01-15T03:35:26;17.48;;;7.60;;
22026;SDS011;11177;50.966;10.070;2024-01-15T03:37:56;17.48;;;7.88;;
22026;SDS011;11177;50.966;10.070;2024-01-15T03:40:23;19.23;;;7.93;;
22026;SDS011;11177;50.966;10.070;2024-01-15T03:42:51;14.73;;;7.50;;
22026;SDS011;11177;50.966;10.070;2024-01-15T03:45:18;12.43;;;6.90;;
22026;SDS011;11177;50.966;10.070;2024-01-15T03:47:45;14.52;;;7.20;;
22026;SDS011;11177;50.966;10.070;2024-01-15T03:50:17;16.15;;;8.10;;
22026;SDS011;11177;50.966;10.070;2024-01-15T03:52:44;14.02;;;7.40;;
22026;SDS011;11177;50.966;10.070;2024-01-15T03:55:12;12.77;;;7.35;;
22026;SDS011;11177;50.966;10.070;2024-01-15T03:57:39;15.05;;;7.35;;
22026;SDS011;11177;50.966;10.070;2024-01-15T04:00:06;14.52;;;7.38;;
22026;SDS011;11177;50.966;10.070;2024-01-15T04:02:34;15.98;;;7.55;;
22026;SDS011;11177;50.966;10.070;2024-01-15T04:05:01;13.52;;;7.00;;
22026;SDS011;11177;50.966;10.070;2024-01-15T04:07:28;14.30;;;7.50;;
22026;SDS011;11177;50.966;10.070;2024-01-15T04:09:55;15.45;;;7.70;;
22026;SDS011;11177;50.966;10.070;2024-01-15T04:12:22;14.60;;;7.35;;
22026;SDS011;11177;50.966;10.070;2024-01-15T04:14:53;15.13;;;7.28;;
22026;SDS011;11177;50.966;10.070;2024-01-15T04:17:20;15.27;;;7.78;;
22026;SDS011;11177;50.966;10.070;2024-01-15T04:19:48;16.23;;;7.65;;
22026;SDS011;11177;50.966;10.070;2024-01-15T04:22:16;16.02;;;7.40;;
22026;SDS011;11177;50.966;10.070;2024-01-15T04:24:43;15.55;;;7.18;;
22026;SDS011;11177;50.966;10.070;2024-01-15T04:27:10;15.43;;;7.78;;
22026;SDS011;11177;50.966;10.070;2024-01-15T04:29:38;14.27;;;7.53;;
22026;SDS011;11177;50.966;10.070;2024-01-15T04:32:07;15.02;;;7.47;;
22026;SDS011;11177;50.966;10.070;2024-01-15T04:34:34;17.80;;;7.88;;
22026;SDS011;11177;50.966;10.070;2024-01-15T04:37:08;15.40;;;7.68;;
22026;SDS011;11177;50.966;10.070;2024-01-15T04:39:35;15.10;;;7.82;;
22026;SDS011;11177;50.966;10.070;2024-01-15T04:42:03;15.25;;;8.27;;
22026;SDS011;11177;50.966;10.070;2024-01-15T04:44:30;19.17;;;9.77;;
22026;SDS011;11177;50.966;10.070;2024-01-15T04:46:57;18.60;;;8.68;;
22026;SDS011;11177;50.966;10.070;2024-01-15T04:49:27;16.10;;;8.25;;
22026;SDS011;11177;50.966;10.070;2024-01-15T04:51:56;17.20;;;8.55;;
22026;SDS011;11177;50.966;10.070;2024-01-15T04:54:23;16.27;;;8.20;;
22026;SDS011;11177;50.966;10.070;2024-01-15T04:56:50;20.20;;;7.78;;
22026;SDS011;11177;50.966;10.070;2024-01-15T04:59:17;19.70;;;8.43;;
22026;SDS011;11177;50.966;10.070;2024-01-15T05:01:44;15.73;;;7.38;;
22026;SDS011;11177;50.966;10.070;2024-01-15T05:04:11;17.25;;;8.02;;
22026;SDS011;11177;50.966;10.070;2024-01-15T05:06:38;15.82;;;7.68;;
22026;SDS011;11177;50.966;10.070;2024-01-15T05:09:06;15.80;;;7.93;;
22026;SDS011;11177;50.966;10.070;2024-01-15T05:11:33;15.90;;;7.78;;
22026;SDS011;11177;50.966;10.070;2024-01-15T05:14:00;17.65;;;8.43;;
22026;SDS011;11177;50.966;10.070;2024-01-15T05:16:27;18.63;;;8.27;;
22026;SDS011;11177;50.966;10.070;2024-01-15T05:18:54;17.60;;;8.18;;
22026;SDS011;11177;50.966;10.070;2024-01-15T05:21:22;16.95;;;8.50;;
22026;SDS011;11177;50.966;10.070;2024-01-15T05:23:51;19.85;;;7.63;;
22026;SDS011;11177;50.966;10.070;2024-01-15T05:26:21;14.95;;;7.90;;
22026;SDS011;11177;50.966;10.070;2024-01-15T05:28:48;20.67;;;8.85;;
22026;SDS011;11177;50.966;10.070;2024-01-15T05:31:15;17.13;;;8.20;;
22026;SDS011;11177;50.966;10.070;2024-01-15T05:33:43;15.75;;;8.15;;
22026;SDS011;11177;50.966;10.070;2024-01-15T05:36:10;18.83;;;8.70;;
22026;SDS011;11177;50.966;10.070;2024-01-15T05:38:38;17.92;;;9.52;;
22026;SDS011;11177;50.966;10.070;2024-01-15T05:41:05;19.63;;;8.85;;
22026;SDS011;11177;50.966;10.070;2024-01-15T05:43:32;18.35;;;9.10;;
22026;SDS011;11177;50.966;10.070;2024-01-15T05:45:59;18.25;;;8.50;;
22026;SDS011;11177;50.966;10.070;2024-01-15T05:48:26;35.58;;;14.80;;
22026;SDS011;11177;50.966;10.070;2024-01-15T05:50:54;23.48;;;11.48;;
22026;SDS011;11177;50.966;10.070;2024-01-15T05:53:24;18.05;;;8.52;;
22026;SDS011;11177;50.966;10.070;2024-01-15T05:55:51;17.27;;;8.80;;
22026;SDS011;11177;50.966;10.070;2024-01-15T05:58:18;22.65;;;8.70;;
22026;SDS011;11177;50.966;10.070;2024-01-15T06:00:47;17.83;;;8.65;;
22026;SDS011;11177;50.966;10.070;2024-01-15T06:03:18;17.08;;;8.27;;
22026;SDS011;11177;50.966;10.070;2024-01-15T06:05:45;16.25;;;8.02;;
22026;SDS011;11177;50.966;10.070;2024-01-15T06:08:12;17.10;;;8.23;;
22026;SDS011;11177;50.966;10.070;2024-01-15T06:10:41;20.08;;;8.07;;
22026;SDS011;11177;50.966;10.070;2024-01-15T06:13:24;18.50;;;8.15;;
22026;SDS011;11177;50.966;10.070;2024-01-15T06:16:18;14.95;;;7.43;;
22026;SDS011;11177;50.966;10.070;2024-01-15T06:18:47;15.70;;;7.70;;
22026;SDS011;11177;50.966;10.070;2024-01-15T06:21:18;19.55;;;7.95;;
22026;SDS011;11177;50.966;10.070;2024-01-15T06:23:51;18.27;;;8.80;;
22026;SDS011;11177;50.966;10.070;2024-01-15T06:26:18;20.05;;;7.53;;
22026;SDS011;11177;50.966;10.070;2024-01-15T06:28:48;15.90;;;7.53;;
22026;SDS011;11177;50.966;10.070;2024-01-15T06:31:21;17.98;;;7.80;;
22026;SDS011;11177;50.966;10.070;2024-01-15T06:33:55;18.42;;;8.52;;
22026;SDS011;11177;50.966;10.070;2024-01-15T06:36:23;17.85;;;7.90;;
22026;SDS011;11177;50.966;10.070;2024-01-15T06:38:50;18.17;;;8.57;;
22026;SDS011;11177;50.966;10.070;2024-01-15T06:41:18;15.43;;;8.02;;
22026;SDS011;11177;50.966;10.070;2024-01-15T06:43:54;20.90;;;8.02;;
22026;SDS011;11177;50.966;10.070;2024-01-15T06:46:35;17.08;;;7.90;;
22026;SDS011;11177;50.966;10.070;2024-01-15T06:49:08;18.90;;;7.90;;
22026;SDS011;11177;50.966;10.070;2024-01-15T06:51:36;15.57;;;7.63;;
22026;SDS011;11177;50.966;10.070;2024-01-15T06:54:15;18.75;;;7.70;;
22026;SDS011;11177;50.966;10.070;2024-01-15T06:57:10;18.40;;;7.88;;
22026;SDS011;11177;50.966;10.070;2024-01-15T06:59:38;15.88;;;7.95;;
22026;SDS011;11177;50.966;10.070;2024-01-15T07:02:09;18.42;;;8.02;;
22026;SDS011;11177;50.966;10.070;2024-01-15T07:04:38;18.65;;;8.38;;
22026;SDS011;11177;50.966;10.070;2024-01-15T07:07:12;17.20;;;7.93;;
22026;SDS011;11177;50.966;10.070;2024-01-15T07:09:50;18.33;;;7.75;;
22026;SDS011;11177;50.966;10.070;2024-01-15T07:12:22;16.80;;;7.95;;
22026;SDS011;11177;50.966;10.070;2024-01-15T07:14:52;17.42;;;8.32;;
22026;SDS011;11177;50.966;10.070;2024-01-15T07:17:51;16.83;;;8.45;;
22026;SDS011;11177;50.966;10.070;2024-01-15T07:20:19;16.77;;;8.13;;
22026;SDS011;11177;50.966;10.070;2024-01-15T07:22:46;16.13;;;7.20;;
22026;SDS011;11177;50.966;10.070;2024-01-15T07:25:21;17.90;;;7.90;;
22026;SDS011;11177;50.966;10.070;2024-01-15T07:27:53;20.10;;;8.82;;
22026;SDS011;11177;50.966;10.070;2024-01-15T07:30:20;18.35;;;8.07;;
22026;SDS011;11177;50.966;10.070;2024-01-15T07:32:48;16.17;;;7.80;;
22026;SDS011;11177;50.966;10.070;2024-01-15T07:35:20;17.90;;;9.23;;
22026;SDS011;11177;50.966;10.070;2024-01-15T07:37:47;25.88;;;10.57;;
22026;SDS011;11177;50.966;10.070;2024-01-15T07:40:14;17.42;;;8.93;;
22026;SDS011;11177;50.966;10.070;2024-01-15T07:42:42;16.38;;;8.07;;
22026;SDS011;11177;50.966;10.070;2024-01-15T07:45:16;21.13;;;8.95;;
22026;SDS011;11177;50.966;10.070;2024-01-15T07:47:43;20.58;;;8.57;;
22026;SDS011;11177;50.966;10.070;2024-01-15T07:50:11;16.48;;;8.48;;
22026;SDS011;11177;50.966;10.070;2024-01-15T07:52:41;21.70;;;8.95;;
22026;SDS011;11177;50.966;10.070;2024-01-15T07:55:11;20.45;;;8.77;;
22026;SDS011;11177;50.966;10.070;2024-01-15T07:57:38;19.27;;;8.38;;
22026;SDS011;11177;50.966;10.070;2024-01-15T08:00:07;16.05;;;8.40;;
22026;SDS011;11177;50.966;10.070;2024-01-15T14:01:15;13.23;;;6.20;;
22026;SDS011;11177;50.966;10.070;2024-01-15T14:03:44;13.88;;;5.70;;
22026;SDS011;11177;50.966;10.070;2024-01-15T14:06:12;9.65;;;5.47;;
22026;SDS011;11177;50.966;10.070;2024-01-15T14:08:39;10.80;;;5.75;;
22026;SDS011;11177;50.966;10.070;2024-01-15T14:11:05;12.35;;;6.60;;
22026;SDS011;11177;50.966;10.070;2024-01-15T14:13:33;16.35;;;8.93;;
22026;SDS011;11177;50.966;10.070;2024-01-15T14:16:00;11.73;;;5.70;;
22026;SDS011;11177;50.966;10.070;2024-01-15T14:18:28;12.65;;;5.72;;
22026;SDS011;11177;50.966;10.070;2024-01-15T14:20:59;9.85;;;5.60;;
22026;SDS011;11177;50.966;10.070;2024-01-15T14:23:27;11.73;;;5.68;;
22026;SDS011;11177;50.966;10.070;2024-01-15T14:25:54;12.27;;;6.28;;
22026;SDS011;11177;50.966;10.070;2024-01-15T14:28:21;13.18;;;6.45;;
22026;SDS011;11177;50.966;10.070;2024-01-15T14:30:49;11.57;;;6.05;;
22026;SDS011;11177;50.966;10.070;2024-01-15T14:33:16;15.65;;;7.13;;
22026;SDS011;11177;50.966;10.070;2024-01-15T14:35:43;13.90;;;6.85;;
22026;SDS011;11177;50.966;10.070;2024-01-15T14:38:10;16.67;;;7.97;;
22026;SDS011;11177;50.966;10.070;2024-01-15T14:40:39;12.07;;;6.18;;
22026;SDS011;11177;50.966;10.070;2024-01-15T14:43:06;12.02;;;6.07;;
22026;SDS011;11177;50.966;10.070;2024-01-15T14:45:34;13.07;;;6.22;;
22026;SDS011;11177;50.966;10.070;2024-01-15T14:48:01;9.20;;;5.00;;
22026;SDS011;11177;50.966;10.070;2024-01-15T14:50:28;10.27;;;5.68;;
22026;SDS011;11177;50.966;10.070;2024-01-15T14:52:55;9.30;;;4.85;;
22026;SDS011;11177;50.966;10.070;2024-01-15T14:55:22;9.45;;;4.53;;
22026;SDS011;11177;50.966;10.070;2024-01-15T14:57:49;10.52;;;5.57;;
22026;SDS011;11177;50.966;10.070;2024-01-15T15:00:20;12.77;;;5.80;;
22026;SDS011;11177;50.966;10.070;2024-01-15T15:02:47;19.25;;;7.20;;
22026;SDS011;11177;50.966;10.070;2024-01-15T15:05:14;15.15;;;5.93;;
22026;SDS011;11177;50.966;10.070;2024-01-15T15:07:44;11.90;;;5.15;;
22026;SDS011;11177;50.966;10.070;2024-01-15T15:10:11;11.93;;;4.95;;
22026;SDS011;11177;50.966;10.070;2024-01-15T15:12:38;10.85;;;5.22;;
22026;SDS011;11177;50.966;10.070;2024-01-15T15:15:05;9.75;;;4.38;;
22026;SDS011;11177;50.966;10.070;2024-01-15T15:17:37;9.52;;;4.13;;
22026;SDS011;11177;50.966;10.070;2024-01-15T15:20:05;12.27;;;5.18;;
22026;SDS011;11177;50.966;10.070;2024-01-15T15:22:33;9.98;;;4.13;;
22026;SDS011;11177;50.966;10.070;2024-01-15T15:25:00;10.27;;;4.40;;
22026;SDS011;11177;50.966;10.070;2024-01-15T15:27:27;11.38;;;4.57;;
22026;SDS011;11177;50.966;10.070;2024-01-15T15:29:55;15.57;;;5.88;;
22026;SDS011;11177;50.966;10.070;2024-01-15T15:32:22;24.15;;;7.60;;
22026;SDS011;11177;50.966;10.070;2024-01-15T15:34:50;17.15;;;5.97;;
22026;SDS011;11177;50.966;10.070;2024-01-15T15:37:17;25.55;;;8.50;;
22026;SDS011;11177;50.966;10.070;2024-01-15T15:39:44;22.70;;;7.50;;
22026;SDS011;11177;50.966;10.070;2024-01-15T15:42:11;11.50;;;4.78;;
22026;SDS011;11177;50.966;10.070;2024-01-15T15:44:40;16.58;;;5.72;;
22026;SDS011;11177;50.966;10.070;2024-01-15T15:47:16;4.78;;;2.72;;
22026;SDS011;11177;50.966;10.070;2024-01-15T15:49:43;4.80;;;3.00;;
22026;SDS011;11177;50.966;10.070;2024-01-15T15:52:11;6.43;;;3.10;;
22026;SDS011;11177;50.966;10.070;2024-01-15T15:54:38;4.55;;;2.83;;
22026;SDS011;11177;50.966;10.070;2024-01-15T15:57:05;7.47;;;4.03;;
22026;SDS011;11177;50.966;10.070;2024-01-15T15:59:31;5.15;;;2.53;;
22026;SDS011;11177;50.966;10.070;2024-01-15T16:01:58;3.55;;;2.10;;
22026;SDS011;11177;50.966;10.070;2024-01-15T16:04:25;4.25;;;2.20;;
22026;SDS011;11177;50.966;10.070;2024-01-15T16:06:52;1.98;;;1.77;;
22026;SDS011;11177;50.966;10.070;2024-01-15T16:09:20;4.95;;;2.00;;
22026;SDS011;11177;50.966;10.070;2024-01-15T16:11:48;2.50;;;1.80;;
22026;SDS011;11177;50.966;10.070;2024-01-15T16:14:16;3.30;;;1.90;;
22026;SDS011;11177;50.966;10.070;2024-01-15T16:16:44;4.13;;;1.90;;
22026;SDS011;11177;50.966;10.070;2024-01-15T16:19:32;3.88;;;1.75;;
22026;SDS011;11177;50.966;10.070;2024-01-15T16:22:19;2.72;;;1.60;;
22026;SDS011;11177;50.966;10.070;2024-01-15T16:25:06;4.15;;;2.10;;
22026;SDS011;11177;50.966;10.070;2024-01-15T16:27:34;3.38;;;2.40;;
22026;SDS011;11177;50.966;10.070;2024-01-15T16:30:00;4.65;;;2.03;;
22026;SDS011;11177;50.966;10.070;2024-01-15T16:32:33;4.22;;;1.73;;
22026;SDS011;11177;50.966;10.070;2024-01-15T16:35:00;3.50;;;1.88;;
22026;SDS011;11177;50.966;10.070;2024-01-15T16:37:28;5.03;;;2.70;;
22026;SDS011;11177;50.966;10.070;2024-01-15T16:39:55;3.78;;;2.33;;
22026;SDS011;11177;50.966;10.070;2024-01-15T16:42:21;8.38;;;3.60;;
22026;SDS011;11177;50.966;10.070;2024-01-15T16:44:48;4.55;;;2.63;;
22026;SDS011;11177;50.966;10.070;2024-01-15T16:47:15;6.30;;;2.90;;
22026;SDS011;11177;50.966;10.070;2024-01-15T16:49:42;4.60;;;3.10;;
22026;SDS011;11177;50.966;10.070;2024-01-15T16:52:08;2.72;;;1.83;;
22026;SDS011;11177;50.966;10.070;2024-01-15T16:54:35;4.13;;;2.65;;
22026;SDS011;11177;50.966;10.070;2024-01-15T16:57:02;4.22;;;1.92;;
22026;SDS011;11177;50.966;10.070;2024-01-15T16:59:29;2.88;;;2.10;;
22026;SDS011;11177;50.966;10.070;2024-01-15T17:01:57;2.55;;;1.85;;
22026;SDS011;11177;50.966;10.070;2024-01-15T17:04:24;3.17;;;2.20;;
22026;SDS011;11177;50.966;10.070;2024-01-15T17:06:54;3.45;;;1.77;;
22026;SDS011;11177;50.966;10.070;2024-01-15T17:09:21;6.53;;;2.15;;
22026;SDS011;11177;50.966;10.070;2024-01-15T17:11:48;4.45;;;2.40;;
22026;SDS011;11177;50.966;10.070;2024-01-15T17:14:14;2.80;;;1.90;;
22026;SDS011;11177;50.966;10.070;2024-01-15T17:16:43;3.85;;;2.78;;
22026;SDS011;11177;50.966;10.070;2024-01-15T17:19:12;4.10;;;2.35;;
22026;SDS011;11177;50.966;10.070;2024-01-15T17:21:39;7.28;;;2.83;;
22026;SDS011;11177;50.966;10.070;2024-01-15T17:24:07;4.80;;;2.85;;
22026;SDS011;11177;50.966;10.070;2024-01-15T17:26:33;7.07;;;3.60;;
22026;SDS011;11177;50.966;10.070;2024-01-15T17:29:00;8.98;;;3.80;;
22026;SDS011;11177;50.966;10.070;2024-01-15T17:31:27;10.00;;;4.03;;
22026;SDS011;11177;50.966;10.070;2024-01-15T17:33:55;6.85;;;3.97;;
22026;SDS011;11177;50.966;10.070;2024-01-15T17:36:25;4.50;;;2.58;;
22026;SDS011;11177;50.966;10.070;2024-01-15T17:38:52;8.10;;;4.03;;
22026;SDS011;11177;50.966;10.070;2024-01-15T17:41:19;4.60;;;2.95;;
22026;SDS011;11177;50.966;10.070;2024-01-15T17:43:47;2.50;;;2.20;;
22026;SDS011;11177;50.966;10.070;2024-01-15T17:46:14;2.80;;;2.08;;
22026;SDS011;11177;50.966;10.070;2024-01-15T17:48:42;4.07;;;2.60;;
22026;SDS011;11177;50.966;10.070;2024-01-15T17:51:09;6.72;;;3.60;;
22026;SDS011;11177;50.966;10.070;2024-01-15T17:53:37;8.63;;;4.20;;
22026;SDS011;11177;50.966;10.070;2024-01-15T17:56:04;10.40;;;5.13;;
22026;SDS011;11177;50.966;10.070;2024-01-15T17:58:31;6.80;;;4.38;;
22026;SDS011;11177;50.966;10.070;2024-01-15T18:00:59;5.57;;;3.58;;
22026;SDS011;11177;50.966;10.070;2024-01-15T18:03:28;4.50;;;3.10;;
22026;SDS011;11177;50.966;10.070;2024-01-15T18:05:55;4.95;;;3.13;;
22026;SDS011;11177;50.966;10.070;2024-01-15T18:08:23;3.15;;;2.72;;
22026;SDS011;11177;50.966;10.070;2024-01-15T18:10:50;4.45;;;2.90;;
22026;SDS011;11177;50.966;10.070;2024-01-15T18:13:17;6.57;;;2.78;;
22026;SDS011;11177;50.966;10.070;2024-01-15T18:15:43;3.28;;;2.35;;
22026;SDS011;11177;50.966;10.070;2024-01-15T18:18:13;3.03;;;2.38;;
22026;SDS011;11177;50.966;10.070;2024-01-15T18:20:40;2.92;;;2.47;;
22026;SDS011;11177;50.966;10.070;2024-01-15T18:23:08;5.15;;;2.80;;
22026;SDS011;11177;50.966;10.070;2024-01-15T18:25:35;5.90;;;3.45;;
22026;SDS011;11177;50.966;10.070;2024-01-15T18:28:02;4.25;;;3.00;;
22026;SDS011;11177;50.966;10.070;2024-01-15T18:30:30;3.92;;;2.90;;
22026;SDS011;11177;50.966;10.070;2024-01-15T18:32:57;4.57;;;3.13;;
22026;SDS011;11177;50.966;10.070;2024-01-15T18:35:24;6.32;;;3.50;;
22026;SDS011;11177;50.966;10.070;2024-01-15T18:37:52;4.45;;;2.97;;
22026;SDS011;11177;50.966;10.070;2024-01-15T18:40:19;5.68;;;2.70;;
22026;SDS011;11177;50.966;10.070;2024-01-15T18:42:47;4.80;;;2.60;;
22026;SDS011;11177;50.966;10.070;2024-01-15T18:45:14;7.03;;;2.97;;
22026;SDS011;11177;50.966;10.070;2024-01-15T18:47:42;4.03;;;3.05;;
22026;SDS011;11177;50.966;10.070;2024-01-15T18:50:11;3.20;;;2.40;;
22026;SDS011;11177;50.966;10.070;2024-01-15T18:52:38;5.82;;;2.60;;
22026;SDS011;11177;50.966;10.070;2024-01-15T18:55:05;2.25;;;2.00;;
22026;SDS011;11177;50.966;10.070;2024-01-15T18:57:42;3.95;;;2.22;;
22026;SDS011;11177;50.966;10.070;2024-01-15T19:00:09;4.07;;;1.73;;
22026;SDS011;11177;50.966;10.070;2024-01-15T19:02:37;3.58;;;1.80;;
22026;SDS011;11177;50.966;10.070;2024-01-15T19:05:05;3.95;;;2.00;;
22026;SDS011;11177;50.966;10.070;2024-01-15T19:07:32;2.95;;;1.80;;
22026;SDS011;11177;50.966;10.070;2024-01-15T19:10:03;5.22;;;2.00;;
22026;SDS011;11177;50.966;10.070;2024-01-15T19:12:33;4.45;;;1.80;;
22026;SDS011;11177;50.966;10.070;2024-01-15T19:15:00;4.07;;;2.05;;
22026;SDS011;11177;50.966;10.070;2024-01-15T19:17:27;3.67;;;1.92;;
22026;SDS011;11177;50.966;10.070;2024-01-15T19:19:54;4.20;;;1.70;;
22026;SDS011;11177;50.966;10.070;2024-01-15T19:22:21;6.88;;;2.50;;
22026;SDS011;11177;50.966;10.070;2024-01-15T19:24:48;4.38;;;2.70;;
22026;SDS011;11177;50.966;10.070;2024-01-15T19:27:15;3.38;;;1.80;;
22026;SDS011;11177;50.966;10.070;2024-01-15T19:29:45;5.45;;;2.13;;
22026;SDS011;11177;50.966;10.070;2024-01-15T19:32:12;7.35;;;2.08;;
22026;SDS011;11177;50.966;10.070;2024-01-15T19:34:40;6.25;;;2.60;;
22026;SDS011;11177;50.966;10.070;2024-01-15T19:37:07;5.65;;;2.38;;
22026;SDS011;11177;50.966;10.070;2024-01-15T19:39:34;5.50;;;2.72;;
22026;SDS011;11177;50.966;10.070;2024-01-15T19:42:02;4.88;;;2.13;;
22026;SDS011;11177;50.966;10.070;2024-01-15T19:44:30;3.60;;;2.10;;
22026;SDS011;11177;50.966;10.070;2024-01-15T19:46:57;7.18;;;2.67;;
22026;SDS011;11177;50.966;10.070;2024-01-15T19:49:25;7.70;;;2.78;;
22026;SDS011;11177;50.966;10.070;2024-01-15T19:51:52;5.90;;;2.50;;
22026;SDS011;11177;50.966;10.070;2024-01-15T19:54:19;4.20;;;2.40;;
22026;SDS011;11177;50.966;10.070;2024-01-15T19:56:47;6.82;;;2.60;;
22026;SDS011;11177;50.966;10.070;2024-01-15T19:59:13;4.57;;;2.50;;
22026;SDS011;11177;50.966;10.070;2024-01-15T20:01:41;6.80;;;2.40;;
22026;SDS011;11177;50.966;10.070;2024-01-15T20:04:08;10.07;;;3.03;;
22026;SDS011;11177;50.966;10.070;2024-01-15T20:06:35;4.07;;;2.15;;
22026;SDS011;11177;50.966;10.070;2024-01-15T20:09:02;5.72;;;2.63;;
22026;SDS011;11177;50.966;10.070;2024-01-15T20:11:30;9.65;;;2.38;;
22026;SDS011;11177;50.966;10.070;2024-01-15T20:16:34;4.53;;;2.00;;
22026;SDS011;11177;50.966;10.070;2024-01-15T20:19:02;7.43;;;2.38;;
22026;SDS011;11177;50.966;10.070;2024-01-15T20:21:30;6.25;;;2.30;;
22026;SDS011;11177;50.966;10.070;2024-01-15T20:23:58;4.55;;;2.25;;
22026;SDS011;11177;50.966;10.070;2024-01-15T20:26:29;3.55;;;2.00;;
22026;SDS011;11177;50.966;10.070;2024-01-15T20:28:56;5.90;;;2.40;;
22026;SDS011;11177;50.966;10.070;2024-01-15T20:31:24;6.85;;;2.30;;
22026;SDS011;11177;50.966;10.070;2024-01-15T20:33:51;4.82;;;2.03;;